createdAt,value
2023-11-19T00:01:34.865Z,100462.50
2023-11-19T00:04:01.699Z,100471.13
2023-11-19T00:06:29.048Z,100465.88
2023-11-19T00:08:55.772Z,100459.59
2023-11-19T00:11:22.631Z,100457.25
2023-11-19T00:13:49.497Z,100455.94
2023-11-19T00:16:17.694Z,100457.81
2023-11-19T00:18:44.632Z,100460.44
2023-11-19T00:21:11.645Z,100468.31
2023-11-19T00:23:38.908Z,100469.34
2023-11-19T00:26:07.409Z,100468.44
2023-11-19T00:28:35.304Z,100484.97
2023-11-19T00:31:02.012Z,100493.50
2023-11-19T00:33:28.765Z,100498.44
2023-11-19T00:35:55.396Z,100488.69
2023-11-19T00:38:22.291Z,100478.25
2023-11-19T00:40:48.960Z,100471.06
2023-11-19T00:43:15.630Z,100472.13
2023-11-19T00:45:42.383Z,100461.13
2023-11-19T00:48:09.031Z,100460.47
2023-11-19T00:50:37.764Z,100468.63
2023-11-19T00:53:05.184Z,100457.75
2023-11-19T00:55:31.829Z,100463.91
2023-11-19T00:57:59.194Z,100463.69
2023-11-19T01:00:28.515Z,100461.06
2023-11-19T01:02:55.275Z,100453.84
2023-11-19T01:05:23.953Z,100451.53
2023-11-19T01:07:51.314Z,100460.28
2023-11-19T01:10:19.865Z,100466.16
2023-11-19T01:12:46.623Z,100460.72
2023-11-19T01:15:14.366Z,100460.53
2023-11-19T01:17:52.337Z,100454.06
2023-11-19T01:20:21.188Z,100452.72
2023-11-19T01:22:49.899Z,100448.91
2023-11-19T01:25:16.975Z,100447.00
2023-11-19T01:27:43.673Z,100451.13
2023-11-19T01:30:14.215Z,100454.59
2023-11-19T01:32:41.777Z,100455.56
2023-11-19T01:35:12.221Z,100450.31
2023-11-19T01:37:38.971Z,100455.41
2023-11-19T01:40:07.586Z,100448.44
2023-11-19T01:42:39.573Z,100445.97
2023-11-19T01:45:09.480Z,100454.47
2023-11-19T01:47:36.660Z,100443.78
2023-11-19T01:50:07.831Z,100436.47
2023-11-19T01:52:37.812Z,100428.38
2023-11-19T01:55:05.508Z,100424.44
2023-11-19T01:57:32.094Z,100419.19
2023-11-19T01:59:59.173Z,100416.41
2023-11-19T02:02:27.437Z,100404.06
2023-11-19T02:04:54.557Z,100398.66
2023-11-19T02:07:21.816Z,100401.19
2023-11-19T02:09:49.306Z,100403.88
2023-11-19T02:12:16.393Z,100398.63
2023-11-19T02:14:43.005Z,100407.16
2023-11-19T02:17:27.143Z,100405.56
2023-11-19T02:19:53.797Z,100400.31
2023-11-19T02:22:21.157Z,100402.75
2023-11-19T02:24:50.475Z,100393.75
2023-11-19T02:27:38.254Z,100387.44
2023-11-19T02:30:07.402Z,100397.72
2023-11-19T02:32:34.026Z,100398.47
2023-11-19T02:37:30.057Z,100414.06
2023-11-19T02:39:57.539Z,100404.34
2023-11-19T02:42:24.110Z,100388.72
2023-11-19T02:44:50.691Z,100390.50
2023-11-19T02:47:18.161Z,100384.41
2023-11-19T02:49:44.701Z,100373.25
2023-11-19T02:52:11.707Z,100373.19
2023-11-19T02:54:38.347Z,100367.88
2023-11-19T02:57:05.858Z,100364.25
2023-11-19T02:59:40.273Z,100371.03
2023-11-19T03:02:13.383Z,100358.88
2023-11-19T03:04:44.425Z,100357.91
2023-11-19T03:07:11.029Z,100357.75
2023-11-19T03:09:37.672Z,100355.91
2023-11-19T03:12:07.625Z,100351.50
2023-11-19T03:14:37.072Z,100349.66
2023-11-19T03:17:04.821Z,100354.13
2023-11-19T03:19:31.541Z,100338.56
2023-11-19T03:21:58.109Z,100339.59
2023-11-19T03:24:26.211Z,100337.81
2023-11-19T03:26:52.859Z,100351.78
2023-11-19T03:29:19.456Z,100353.56
2023-11-19T03:31:46.050Z,100343.97
2023-11-19T03:34:12.791Z,100349.44
2023-11-19T03:36:39.405Z,100349.50
2023-11-19T03:39:06.276Z,100339.00
2023-11-19T03:44:02.343Z,100322.41
2023-11-19T03:46:29.816Z,100319.84
2023-11-19T03:48:56.507Z,100314.75
2023-11-19T03:51:23.129Z,100301.81
2023-11-19T03:53:49.682Z,100302.69
2023-11-19T03:56:16.313Z,100297.38
2023-11-19T03:58:43.285Z,100310.44
2023-11-19T04:01:14.696Z,100297.88
2023-11-19T04:03:50.943Z,100288.22
2023-11-19T04:06:18.069Z,100282.91
2023-11-19T04:08:44.672Z,100282.16
2023-11-19T04:11:11.829Z,100277.91
2023-11-19T04:13:38.406Z,100273.44
2023-11-19T04:16:05.821Z,100272.53
2023-11-19T04:18:33.273Z,100275.94
2023-11-19T04:20:59.872Z,100280.28
2023-11-19T04:23:26.573Z,100269.72
2023-11-19T04:25:53.218Z,100267.81
2023-11-19T04:28:19.765Z,100265.97
2023-11-19T04:30:46.714Z,100262.50
2023-11-19T04:33:13.392Z,100262.41
2023-11-19T04:35:39.961Z,100270.16
2023-11-19T04:38:06.786Z,100265.59
2023-11-19T04:40:35.002Z,100262.91
2023-11-19T04:43:01.931Z,100271.69
2023-11-19T04:45:28.574Z,100279.72
2023-11-19T04:47:55.165Z,100288.50
2023-11-19T04:50:21.839Z,100300.75
2023-11-19T04:52:48.440Z,100307.72
2023-11-19T04:55:15.859Z,100298.84
2023-11-19T04:57:42.694Z,100299.69
2023-11-19T05:02:39.465Z,100295.81
2023-11-19T05:05:06.941Z,100279.59
2023-11-19T05:07:33.579Z,100278.75
2023-11-19T05:10:00.467Z,100287.88
2023-11-19T05:12:27.305Z,100285.19
2023-11-19T05:14:53.910Z,100290.91
2023-11-19T05:17:20.679Z,100295.75
2023-11-19T05:19:48.385Z,100299.75
2023-11-19T05:22:15.001Z,100296.94
2023-11-19T05:24:42.174Z,100285.28
2023-11-19T05:27:09.179Z,100279.66
2023-11-19T05:29:35.940Z,100281.03
2023-11-19T05:32:02.651Z,100270.94
2023-11-19T05:34:30.043Z,100264.44
2023-11-19T05:36:56.660Z,100272.88
2023-11-19T05:39:23.228Z,100272.53
2023-11-19T05:41:49.902Z,100280.66
2023-11-19T05:44:16.623Z,100280.22
2023-11-19T05:46:44.406Z,100274.13
2023-11-19T05:49:12.036Z,100267.72
2023-11-19T05:51:39.966Z,100268.19
2023-11-19T05:54:11.177Z,100280.91
2023-11-19T05:56:38.032Z,100284.06
2023-11-19T05:59:08.393Z,100288.06
2023-11-19T06:01:35.947Z,100286.13
2023-11-19T06:04:02.760Z,100269.25
2023-11-19T06:06:30.129Z,100266.41
2023-11-19T06:08:57.354Z,100259.16
2023-11-19T06:11:24.059Z,100261.66
2023-11-19T06:13:52.313Z,100259.94
2023-11-19T06:16:19.294Z,100261.09
2023-11-19T06:18:46.247Z,100256.75
2023-11-19T06:21:13.712Z,100256.53
2023-11-19T06:23:40.266Z,100256.31
2023-11-19T06:26:07.000Z,100248.38
2023-11-19T06:28:33.678Z,100240.56
2023-11-19T06:31:00.407Z,100241.13
2023-11-19T06:33:28.510Z,100231.56
2023-11-19T06:35:55.801Z,100245.41
2023-11-19T06:38:22.576Z,100248.59
2023-11-19T06:40:52.017Z,100243.13
2023-11-19T06:43:20.523Z,100239.34
2023-11-19T06:45:47.184Z,100242.53
2023-11-19T06:48:13.771Z,100231.75
2023-11-19T06:50:40.420Z,100228.84
2023-11-19T06:53:11.350Z,100229.31
2023-11-19T06:55:38.117Z,100227.16
2023-11-19T06:58:04.827Z,100220.75
2023-11-19T07:00:33.747Z,100214.31
2023-11-19T07:03:01.204Z,100219.13
2023-11-19T07:05:27.877Z,100221.38
2023-11-19T07:07:55.681Z,100212.28
2023-11-19T07:10:22.469Z,100217.91
2023-11-19T07:12:50.961Z,100219.28
2023-11-19T07:15:18.973Z,100217.94
2023-11-19T07:17:46.414Z,100215.00
2023-11-19T07:20:16.659Z,100212.91
2023-11-19T07:22:46.829Z,100215.22
2023-11-19T07:25:16.630Z,100222.78
2023-11-19T07:27:44.069Z,100219.81
2023-11-19T07:30:10.989Z,100220.28
2023-11-19T07:32:40.278Z,100204.16
2023-11-19T07:35:08.053Z,100212.50
2023-11-19T07:37:34.678Z,100217.59
2023-11-19T07:40:01.337Z,100222.69
2023-11-19T07:42:28.586Z,100224.22
2023-11-19T07:44:56.618Z,100231.00
2023-11-19T07:47:24.654Z,100232.44
2023-11-19T07:49:52.306Z,100235.06
2023-11-19T07:54:48.305Z,100247.06
2023-11-19T07:57:15.007Z,100241.63
2023-11-19T07:59:42.230Z,100230.00
2023-11-19T08:02:09.034Z,100226.44
2023-11-19T08:04:35.918Z,100225.31
2023-11-19T08:07:03.012Z,100222.53
2023-11-19T08:09:29.779Z,100209.97
2023-11-19T08:11:57.653Z,100206.31
2023-11-19T08:14:25.494Z,100194.84
2023-11-19T08:16:52.310Z,100178.09
2023-11-19T08:19:19.205Z,100170.06
2023-11-19T08:21:45.878Z,100157.97
2023-11-19T08:24:12.563Z,100158.84
2023-11-19T08:26:39.304Z,100151.91
2023-11-19T08:29:06.917Z,100132.25
2023-11-19T08:31:34.083Z,100146.59
2023-11-19T08:34:00.788Z,100168.84
2023-11-19T08:36:29.063Z,100186.28
2023-11-19T08:38:55.660Z,100182.31
2023-11-19T08:41:22.889Z,100169.91
2023-11-19T08:43:49.499Z,100163.97
2023-11-19T08:46:16.182Z,100156.22
2023-11-19T08:48:42.812Z,100140.38
2023-11-19T08:51:09.631Z,100132.75
2023-11-19T08:53:36.601Z,100161.50
2023-11-19T08:56:04.550Z,100150.75
2023-11-19T08:58:32.044Z,100135.66
2023-11-19T09:00:59.354Z,100158.47
2023-11-19T09:03:31.386Z,100171.63
2023-11-19T09:05:58.441Z,100160.84
2023-11-19T09:08:26.481Z,100152.03
2023-11-19T09:10:53.039Z,100164.72
2023-11-19T09:13:19.673Z,100164.19
2023-11-19T09:15:46.303Z,100177.28
2023-11-19T09:18:13.105Z,100177.19
2023-11-19T09:20:40.480Z,100164.88
2023-11-19T09:23:10.476Z,100165.81
2023-11-19T09:28:10.054Z,100161.88
2023-11-19T09:30:36.737Z,100151.56
2023-11-19T09:33:03.571Z,100158.97
2023-11-19T09:35:30.175Z,100159.38
2023-11-19T09:37:56.859Z,100154.31
2023-11-19T09:40:23.753Z,100144.94
2023-11-19T09:42:50.445Z,100126.88
2023-11-19T09:45:18.648Z,100122.00
2023-11-19T09:47:47.640Z,100121.53
2023-11-19T09:50:21.235Z,100118.25
2023-11-19T09:52:48.548Z,100125.38
2023-11-19T09:55:15.941Z,100125.38
2023-11-19T09:57:43.817Z,100121.81
2023-11-19T10:00:12.388Z,100100.72
2023-11-19T10:02:40.455Z,100097.44
2023-11-19T10:05:08.439Z,100105.81
2023-11-19T10:07:35.777Z,100106.19
2023-11-19T10:10:05.338Z,100089.53
2023-11-19T10:12:32.103Z,100085.69
2023-11-19T10:14:59.811Z,100092.41
2023-11-19T10:17:32.781Z,100083.41
2023-11-19T10:20:00.467Z,100073.53
2023-11-19T10:22:28.878Z,100077.19
2023-11-19T10:24:56.782Z,100069.66
2023-11-19T10:27:26.906Z,100052.91
2023-11-19T10:29:53.654Z,100061.19
2023-11-19T10:32:25.663Z,100057.25
2023-11-19T10:35:05.895Z,100058.34
2023-11-19T10:37:34.226Z,100060.59
2023-11-19T10:40:01.277Z,100052.78
2023-11-19T10:42:27.944Z,100058.94
2023-11-19T10:44:54.622Z,100066.84
2023-11-19T10:47:38.060Z,100061.22
2023-11-19T10:50:07.538Z,100054.41
2023-11-19T10:52:35.091Z,100050.25
2023-11-19T10:55:06.161Z,100045.19
2023-11-19T10:57:37.837Z,100048.66
2023-11-19T11:00:11.726Z,100039.09
2023-11-19T11:02:42.258Z,100041.38
2023-11-19T11:05:09.646Z,100037.25
2023-11-19T11:07:41.103Z,100032.94
2023-11-19T11:10:10.491Z,100022.50
2023-11-19T11:12:38.996Z,100011.16
2023-11-19T11:15:07.182Z,100000.38
2023-11-19T11:17:35.003Z,99988.50
2023-11-19T11:20:02.175Z,99995.03
2023-11-19T11:25:27.218Z,99996.31
2023-11-19T11:28:06.782Z,100000.75
2023-11-19T11:30:56.912Z,99996.69
2023-11-19T11:36:32.865Z,100003.88
2023-11-19T11:39:01.950Z,100017.31
2023-11-19T11:41:30.500Z,100012.63
2023-11-19T11:43:58.038Z,99986.72
2023-11-19T11:46:34.003Z,99985.38
2023-11-19T11:49:08.059Z,99975.00
2023-11-19T11:51:57.926Z,99973.03
2023-11-19T11:54:24.498Z,99981.13
2023-11-19T11:57:13.864Z,99965.69
2023-11-19T11:59:41.243Z,99962.97
2023-11-19T12:02:10.060Z,99954.78
2023-11-19T12:04:38.003Z,99947.75
2023-11-19T12:07:27.995Z,99949.06
2023-11-19T12:10:09.061Z,99942.41
2023-11-19T12:12:37.057Z,99940.34
2023-11-19T12:15:15.458Z,99933.22
2023-11-19T12:17:46.950Z,99926.41
2023-11-19T12:20:13.839Z,99909.88
2023-11-19T12:22:42.351Z,99904.03
2023-11-19T12:25:10.798Z,99908.00
2023-11-19T12:27:40.250Z,99917.69
2023-11-19T12:30:07.486Z,99913.00
2023-11-19T12:32:44.694Z,99901.69
2023-11-19T12:35:12.604Z,99889.66
2023-11-19T12:37:46.518Z,99886.56
2023-11-19T12:40:17.182Z,99875.66
2023-11-19T12:42:48.181Z,99873.22
2023-11-19T12:45:15.638Z,99872.25
2023-11-19T12:47:42.326Z,99874.78
2023-11-19T12:50:10.328Z,99853.66
2023-11-19T12:52:40.502Z,99849.44
2023-11-19T12:55:30.479Z,99842.09
2023-11-19T12:57:59.427Z,99842.31
2023-11-19T13:00:28.326Z,99837.59
2023-11-19T13:02:57.164Z,99851.53
2023-11-19T13:05:32.620Z,99857.38
2023-11-19T13:08:00.260Z,99857.00
2023-11-19T13:10:28.460Z,99868.44
2023-11-19T13:13:11.825Z,99863.13
2023-11-19T13:15:38.452Z,99860.81
2023-11-19T13:18:05.160Z,99854.09
2023-11-19T13:20:32.823Z,99857.84
2023-11-19T13:23:06.433Z,99845.75
2023-11-19T13:25:35.888Z,99837.97
2023-11-19T13:28:03.088Z,99839.69
2023-11-19T13:30:30.579Z,99845.94
2023-11-19T13:32:57.832Z,99847.75
2023-11-19T13:35:24.611Z,99842.50
2023-11-19T13:37:51.212Z,99845.56
2023-11-19T13:40:17.858Z,99842.06
2023-11-19T13:42:45.246Z,99850.28
2023-11-19T13:45:16.138Z,99844.38
2023-11-19T13:47:46.897Z,99828.66
2023-11-19T13:50:15.689Z,99834.44
2023-11-19T13:52:44.243Z,99826.66
2023-11-19T13:55:11.822Z,99835.84
2023-11-19T13:57:43.193Z,99828.34
2023-11-19T14:00:14.948Z,99819.03
2023-11-19T14:02:42.268Z,99827.47
2023-11-19T14:05:12.625Z,99830.53
2023-11-19T14:07:40.037Z,99836.16
2023-11-19T14:10:07.945Z,99825.78
2023-11-19T14:12:34.605Z,99826.19
2023-11-19T14:15:01.364Z,99821.47
2023-11-19T14:17:28.147Z,99822.81
2023-11-19T14:19:54.801Z,99815.41
2023-11-19T14:22:21.359Z,99820.16
2023-11-19T14:24:47.914Z,99805.75
2023-11-19T14:27:14.579Z,99814.28
2023-11-19T14:29:41.640Z,99820.22
2023-11-19T14:32:08.410Z,99815.53
2023-11-19T14:34:35.033Z,99819.78
2023-11-19T14:37:01.935Z,99816.16
2023-11-19T14:39:30.549Z,99819.66
2023-11-19T14:41:59.734Z,99809.81
2023-11-19T14:44:26.267Z,99810.66
2023-11-19T14:46:53.045Z,99823.78
2023-11-19T14:49:19.685Z,99821.00
2023-11-19T14:51:49.102Z,99821.00
2023-11-19T14:54:17.030Z,99827.97
2023-11-19T14:56:43.749Z,99817.41
2023-11-19T14:59:10.769Z,99828.22
2023-11-19T15:01:37.532Z,99832.75
2023-11-19T15:04:06.600Z,99827.47
2023-11-19T15:06:35.044Z,99816.16
2023-11-19T15:09:02.514Z,99830.34
2023-11-19T15:11:29.082Z,99826.03
2023-11-19T15:13:55.803Z,99828.66
2023-11-19T15:16:33.360Z,99832.25
2023-11-19T15:19:00.788Z,99837.53
2023-11-19T15:21:28.551Z,99830.56
2023-11-19T15:23:55.133Z,99811.56
2023-11-19T15:26:22.154Z,99804.81
2023-11-19T15:28:48.991Z,99814.63
2023-11-19T15:31:17.381Z,99821.59
2023-11-19T15:33:44.057Z,99830.25
2023-11-19T15:36:10.870Z,99828.47
2023-11-19T15:38:53.006Z,99821.72
2023-11-19T15:41:20.865Z,99812.25
2023-11-19T15:43:47.641Z,99809.72
2023-11-19T15:46:14.234Z,99807.19
2023-11-19T15:48:40.857Z,99815.13
2023-11-19T15:51:07.427Z,99814.41
2023-11-19T15:53:34.247Z,99818.84
2023-11-19T15:56:01.119Z,99818.69
2023-11-19T15:58:27.805Z,99825.56
2023-11-19T16:00:54.476Z,99829.81
2023-11-19T16:03:21.315Z,99820.06
2023-11-19T16:05:57.638Z,99822.09
2023-11-19T16:08:31.101Z,99821.16
2023-11-19T16:10:57.729Z,99807.59
2023-11-19T16:13:24.345Z,99811.84
2023-11-19T16:15:50.929Z,99808.03
2023-11-19T16:18:18.515Z,99794.63
2023-11-19T16:20:46.023Z,99798.72
2023-11-19T16:23:13.258Z,99782.88
2023-11-19T16:25:40.310Z,99779.28
2023-11-19T16:28:08.633Z,99776.50
2023-11-19T16:30:35.536Z,99779.03
2023-11-19T16:33:02.402Z,99762.47
2023-11-19T16:35:29.029Z,99761.31
2023-11-19T16:37:55.928Z,99774.88
2023-11-19T16:40:24.370Z,99770.63
2023-11-19T16:42:51.791Z,99766.03
2023-11-19T16:45:18.712Z,99768.03
2023-11-19T16:47:48.673Z,99781.44
2023-11-19T16:50:18.508Z,99768.25
2023-11-19T16:52:45.193Z,99783.16
2023-11-19T16:55:14.778Z,99781.22
2023-11-19T16:57:42.508Z,99769.72
2023-11-19T17:00:11.783Z,99776.78
2023-11-19T17:05:13.190Z,99778.47
2023-11-19T17:07:40.436Z,99780.28
2023-11-19T17:10:09.318Z,99776.03
2023-11-19T17:12:35.876Z,99774.25
2023-11-19T17:15:05.550Z,99785.78
2023-11-19T17:17:35.231Z,99782.91
2023-11-19T17:20:06.049Z,99791.59
2023-11-19T17:22:38.032Z,99789.13
2023-11-19T17:25:06.759Z,99792.00
2023-11-19T17:27:34.392Z,99783.25
2023-11-19T17:30:01.991Z,99774.56
2023-11-19T17:32:29.023Z,99775.75
2023-11-19T17:34:55.734Z,99770.69
2023-11-19T17:37:22.678Z,99755.50
2023-11-19T17:39:49.919Z,99753.38
2023-11-19T17:42:16.561Z,99769.22
2023-11-19T17:44:43.245Z,99767.34
2023-11-19T17:47:10.012Z,99742.50
2023-11-19T17:49:36.833Z,99740.84
2023-11-19T17:52:04.221Z,99744.94
2023-11-19T17:54:30.727Z,99744.75
2023-11-19T17:56:58.370Z,99744.34
2023-11-19T17:59:26.294Z,99717.97
2023-11-19T18:01:58.109Z,99711.00
2023-11-19T18:04:28.506Z,99725.22
2023-11-19T18:06:55.291Z,99736.19
2023-11-19T18:09:21.947Z,99716.59
2023-11-19T18:11:52.210Z,99720.88
2023-11-19T18:14:21.463Z,99712.69
2023-11-19T18:16:48.071Z,99715.84
2023-11-19T18:19:14.648Z,99726.91
2023-11-19T18:21:41.308Z,99716.66
2023-11-19T18:24:08.849Z,99711.91
2023-11-19T18:29:05.700Z,99701.88
2023-11-19T18:31:33.898Z,99713.88
2023-11-19T18:34:00.826Z,99719.81
2023-11-19T18:36:28.902Z,99729.94
2023-11-19T18:38:55.679Z,99718.09
2023-11-19T18:41:22.356Z,99715.75
2023-11-19T18:43:49.044Z,99716.59
2023-11-19T18:46:15.945Z,99724.31
2023-11-19T18:48:42.655Z,99726.72
2023-11-19T18:51:15.059Z,99733.53
2023-11-19T18:53:49.100Z,99736.06
2023-11-19T18:56:16.035Z,99731.06
2023-11-19T18:58:42.768Z,99743.44
2023-11-19T19:01:15.669Z,99747.25
2023-11-19T19:03:43.413Z,99743.59
2023-11-19T19:06:10.373Z,99738.00
2023-11-19T19:08:37.502Z,99739.88
2023-11-19T19:11:04.881Z,99734.06
2023-11-19T19:13:31.461Z,99728.53
2023-11-19T19:15:58.229Z,99717.06
2023-11-19T19:18:25.157Z,99706.69
2023-11-19T19:20:53.000Z,99700.66
2023-11-19T19:23:19.618Z,99699.84
2023-11-19T19:25:46.176Z,99703.56
2023-11-19T19:30:42.599Z,99702.41
2023-11-19T19:33:10.096Z,99690.09
2023-11-19T19:35:37.030Z,99686.06
2023-11-19T19:38:05.314Z,99665.44
2023-11-19T19:40:32.029Z,99667.50
2023-11-19T19:43:00.176Z,99666.91
2023-11-19T19:45:26.995Z,99671.53
2023-11-19T19:47:55.795Z,99669.22
2023-11-19T19:50:22.969Z,99661.63
2023-11-19T19:52:51.410Z,99637.16
2023-11-19T19:55:22.492Z,99650.25
2023-11-19T19:57:49.474Z,99654.56
2023-11-19T20:00:17.624Z,99672.47
2023-11-19T20:02:46.021Z,99686.50
2023-11-19T20:05:13.564Z,99684.72
2023-11-19T20:07:44.377Z,99666.47
2023-11-19T20:10:13.050Z,99659.53
2023-11-19T20:12:42.529Z,99640.75
2023-11-19T20:15:12.336Z,99653.72
2023-11-19T20:17:39.390Z,99669.44
2023-11-19T20:20:07.561Z,99670.06
2023-11-19T20:22:35.521Z,99668.19
2023-11-19T20:25:02.209Z,99682.06
2023-11-19T20:27:29.426Z,99682.72
2023-11-19T20:29:56.344Z,99700.88
2023-11-19T20:32:23.352Z,99686.50
2023-11-19T20:34:50.069Z,99702.84
2023-11-19T20:37:16.737Z,99680.81
2023-11-19T20:39:43.339Z,99676.63
2023-11-19T20:42:10.048Z,99674.69
2023-11-19T20:44:37.784Z,99668.19
2023-11-19T20:47:06.332Z,99672.19
2023-11-19T20:49:33.068Z,99673.41
2023-11-19T20:51:59.856Z,99688.94
2023-11-19T20:56:56.006Z,99697.47
2023-11-19T20:59:22.597Z,99698.22
2023-11-19T21:01:49.328Z,99705.94
2023-11-19T21:04:16.832Z,99698.56
2023-11-19T21:09:17.165Z,99704.03
2023-11-19T21:11:43.901Z,99693.38
2023-11-19T21:14:11.218Z,99688.19
2023-11-19T21:16:38.322Z,99693.16
2023-11-19T21:19:05.095Z,99686.72
2023-11-19T21:21:31.814Z,99693.06
2023-11-19T21:23:59.635Z,99690.94
2023-11-19T21:26:26.238Z,99684.63
2023-11-19T21:28:52.898Z,99695.78
2023-11-19T21:31:19.622Z,99711.41
2023-11-19T21:33:46.715Z,99697.19
2023-11-19T21:36:13.612Z,99703.06
2023-11-19T21:38:40.219Z,99682.06
2023-11-19T21:41:08.211Z,99672.38
2023-11-19T21:43:35.361Z,99660.97
2023-11-19T21:46:02.233Z,99690.84
2023-11-19T21:48:29.099Z,99689.28
2023-11-19T21:50:56.508Z,99702.13
2023-11-19T21:53:23.082Z,99690.31
2023-11-19T21:55:50.473Z,99702.97
2023-11-19T21:58:16.993Z,99698.72
2023-11-19T22:00:43.628Z,99696.84
2023-11-19T22:03:10.374Z,99698.94
2023-11-19T22:05:37.475Z,99697.22
2023-11-19T22:10:33.929Z,99683.97
2023-11-19T22:13:00.495Z,99679.97
2023-11-19T22:15:27.342Z,99668.78
2023-11-19T22:17:54.616Z,99653.63
2023-11-19T22:20:25.374Z,99631.88
2023-11-19T22:22:52.712Z,99640.97
2023-11-19T22:25:20.498Z,99636.22
2023-11-19T22:27:47.478Z,99631.88
2023-11-19T22:30:14.796Z,99631.03
2023-11-19T22:32:41.861Z,99620.69
2023-11-19T22:35:09.413Z,99630.78
2023-11-19T22:37:36.033Z,99651.00
2023-11-19T22:40:03.056Z,99657.13
2023-11-19T22:42:30.063Z,99645.28
2023-11-19T22:44:56.782Z,99648.63
2023-11-19T22:47:23.607Z,99643.19
2023-11-19T22:49:50.285Z,99634.94
2023-11-19T22:52:16.911Z,99635.50
2023-11-19T22:54:44.081Z,99633.28
2023-11-19T22:57:10.773Z,99615.06
2023-11-19T22:59:37.370Z,99622.75
2023-11-19T23:02:04.180Z,99639.13
2023-11-19T23:04:30.786Z,99636.81
2023-11-19T23:06:57.350Z,99632.75
2023-11-19T23:09:24.013Z,99640.31
2023-11-19T23:11:50.555Z,99648.69
2023-11-19T23:14:17.190Z,99658.72
2023-11-19T23:16:43.769Z,99650.84
2023-11-19T23:19:10.612Z,99654.09
2023-11-19T23:21:41.261Z,99669.47
2023-11-19T23:24:08.439Z,99669.38
2023-11-19T23:26:35.010Z,99672.78
2023-11-19T23:29:09.510Z,99671.81
2023-11-19T23:31:40.171Z,99663.72
2023-11-19T23:34:06.962Z,99668.03
2023-11-19T23:36:33.772Z,99668.03
2023-11-19T23:39:00.421Z,99667.19
2023-11-19T23:41:28.999Z,99661.16
2023-11-19T23:43:56.680Z,99661.06
2023-11-19T23:46:25.145Z,99647.06
2023-11-19T23:51:22.337Z,99630.66
2023-11-19T23:53:48.936Z,99625.78
2023-11-19T23:56:15.537Z,99616.66
2023-11-19T23:58:42.113Z,99616.66
